Bei Facebook empfehlenBei Twitter postenGoogle plusPinterest

Das Wetter im Erzgebirge am 05.03.2017

Wetter und Klima am 05.03.2017 Holzhau im Erzgebirge (630m ü.NN)
Letzte gemessene Temperatur und Uhrzeit der Messung23:45:00 Uhr-1.60 °C
Temperatur (Maximum / Höchstwert) und Uhrzeit der Messung14:00:00 Uhr9.40 °C
Temperatur (Minimum / Tiefstwert) und Uhrzeit der Messung23:45:00-1.60 °C
Errechneter Absolutwert der Temperaturschwankungen zwischen Tmin und Tmax des Tages11.00 K
Errechnete Tagesmitteltemperatur5.63125 °C
Gesamt - Niederschlag des Tages (in flüssiger Form)0.00 Liter / m²
Luftdruck (Maximum / Höchstwert) und Zeitpunkt der Messung12:15:00 Uhr1001.70 hPa
Luftdruck (Minimum / Tiefstwert) und Zeitpunkt der Messung00:00:00 Uhr993.10 hPa
Errechneter Absolutwert der Luftdruckschwankungen des Tages8.60 hPa
Höchste gemessene Windgeschwindigkeit und Uhrzeit der Messung08:30:00 Uhr21.96 km/h
Errechnete Windhäufigkeit in Relation zu den Messwerten des Tages61.45833 %
Niedrigste Windkühle (Windchill) und Zeitpunkt der Messung23:45:00 Uhr-1.60 °C
Taupunkt (Maximum / Höchstwert) und Uhrzeit der Messung00:30:00 Uhr3.30 °C
Taupunkt (Minimum / Tiefstwert) und Uhrzeit der Messung23:15:00-3.90 °C
Anzahl der automatisch eingelesenen Messwerte 96

Detaillierte Wetter- und Klima- Messwerte für den 05.03.2017 in Holzhau im Erzgebirge (630m ü.NN)
ZeitTemperaturLuftdruckRel. LuftfeuchteWindWindrichtungWindchillTaupunktNiederschlag l/m²
23:45:00-1.60 °C998.00 hPa87.00 %-3.70 °C 
23:30:00-1.60 °C998.10 hPa87.00 %-3.70 °C 
23:15:00-1.60 °C998.20 hPa86.00 %-3.90 °C 
23:00:00-1.30 °C998.30 hPa85.00 %-3.80 °C 
22:45:00-0.90 °C998.50 hPa86.00 %-3.20 °C 
22:30:00-0.90 °C998.30 hPa85.00 %-3.40 °C 
22:15:00-0.70 °C998.60 hPa84.00 %-3.30 °C 
22:00:00-0.40 °C998.60 hPa83.00 %0.72 km/hOSO-0.40 °C-3.20 °C 
21:45:000.10 °C998.80 hPa82.00 %-2.60 °C 
21:30:000.40 °C998.70 hPa81.00 %-2.50 °C 
21:15:000.90 °C998.70 hPa79.00 %-2.30 °C 
21:00:001.60 °C998.80 hPa78.00 %-1.80 °C 
20:45:002.30 °C998.80 hPa77.00 %-1.30 °C 
20:30:002.90 °C998.90 hPa77.00 %-0.70 °C 
20:15:003.00 °C999.00 hPa77.00 %-0.60 °C 
20:00:002.90 °C999.00 hPa77.00 %-0.70 °C 
19:45:002.60 °C999.10 hPa77.00 %1.80 km/hOSO2.60 °C-1.00 °C 
19:30:002.40 °C999.30 hPa76.00 %-1.40 °C 
19:15:002.80 °C999.60 hPa74.00 %1.08 km/hOSO2.80 °C-1.40 °C 
19:00:003.40 °C999.70 hPa71.00 %-1.30 °C 
18:45:003.90 °C999.60 hPa72.00 %-0.70 °C 
18:30:004.10 °C999.60 hPa70.00 %-0.90 °C 
18:15:004.80 °C999.80 hPa68.00 %-0.60 °C 
18:00:005.40 °C999.60 hPa66.00 %-0.40 °C 
17:45:005.90 °C999.70 hPa66.00 %0.00 °C 
17:30:006.10 °C999.60 hPa64.00 %-0.20 °C 
17:15:006.30 °C999.80 hPa63.00 %2.52 km/hSO6.30 °C-0.20 °C 
17:00:006.50 °C999.80 hPa63.00 %0.00 °C 
16:45:006.70 °C999.90 hPa62.00 %-0.10 °C 
16:30:006.90 °C999.80 hPa62.00 %0.10 °C 
16:15:007.20 °C1000.10 hPa60.00 %0.00 °C 
16:00:007.80 °C1000.10 hPa59.00 %0.30 °C 
15:45:007.70 °C1000.30 hPa59.00 %0.36 km/hSO7.70 °C0.20 °C 
15:30:007.90 °C1000.40 hPa57.00 %7.20 km/hSSO6.70 °C-0.10 °C 
15:15:008.30 °C1000.30 hPa57.00 %2.16 km/hSW8.30 °C0.30 °C 
15:00:008.40 °C1000.30 hPa56.00 %0.10 °C 
14:45:008.80 °C1000.30 hPa54.00 %4.68 km/hSSW8.80 °C0.00 °C 
14:30:009.10 °C1000.50 hPa54.00 %5.04 km/hSW8.70 °C0.30 °C 
14:15:009.10 °C1000.60 hPa56.00 %0.80 °C 
14:00:009.40 °C1000.80 hPa55.00 %4.68 km/hSSW9.40 °C0.80 °C 
13:45:009.30 °C1000.80 hPa58.00 %7.20 km/hSW8.40 °C1.50 °C 
13:30:008.90 °C1000.80 hPa57.00 %2.88 km/hW8.90 °C0.90 °C 
13:15:008.60 °C1001.10 hPa57.00 %5.04 km/hSSO8.20 °C0.60 °C 
13:00:008.60 °C1001.40 hPa57.00 %10.08 km/hS6.90 °C0.60 °C 
12:45:008.40 °C1001.50 hPa58.00 %1.08 km/hSW8.40 °C0.60 °C 
12:30:008.20 °C1001.50 hPa58.00 %4.68 km/hSW8.20 °C0.40 °C 
12:15:008.10 °C1001.70 hPa58.00 %0.30 °C 
12:00:008.30 °C1001.70 hPa57.00 %2.52 km/hW8.30 °C0.30 °C 
11:45:008.50 °C1001.50 hPa58.00 %1.08 km/hW8.50 °C0.70 °C 
11:30:008.40 °C1001.40 hPa60.00 %2.16 km/hWNW8.40 °C1.10 °C 
11:15:008.10 °C1001.10 hPa62.00 %7.56 km/hSW6.90 °C1.30 °C 
11:00:007.50 °C1001.20 hPa62.00 %3.96 km/hW7.50 °C0.70 °C 
10:45:007.60 °C1001.00 hPa61.00 %7.56 km/hWNW6.30 °C0.60 °C 
10:30:008.10 °C1000.90 hPa61.00 %3.96 km/hW8.10 °C1.00 °C 
10:15:007.60 °C1000.80 hPa64.00 %6.12 km/hW6.70 °C1.20 °C 
10:00:007.80 °C1000.60 hPa63.00 %2.16 km/hW7.80 °C1.20 °C 
09:45:007.20 °C1000.60 hPa66.00 %6.12 km/hW6.20 °C1.30 °C 
09:30:006.90 °C1000.20 hPa67.00 %9.00 km/hW5.10 °C1.20 °C 
09:15:006.60 °C1000.00 hPa68.00 %6.84 km/hNNW5.30 °C1.10 °C 
09:00:006.30 °C1000.00 hPa69.00 %10.80 km/hWNW4.10 °C1.00 °C 
08:45:006.10 °C999.70 hPa69.00 %5.76 km/hNW5.10 °C0.90 °C 
08:30:005.60 °C999.60 hPa72.00 %21.96 km/hWNW1.60 °C1.00 °C 
08:15:004.90 °C999.30 hPa73.00 %11.52 km/hWNW2.20 °C0.50 °C 
08:00:004.80 °C999.50 hPa74.00 %2.88 km/hWNW4.80 °C0.60 °C 
07:45:004.80 °C999.00 hPa73.00 %6.48 km/hW3.30 °C0.40 °C 
07:30:004.90 °C999.00 hPa73.00 %12.60 km/hW2.00 °C0.50 °C 
07:15:005.20 °C998.70 hPa73.00 %9.72 km/hWSW3.00 °C0.80 °C 
07:00:005.20 °C998.50 hPa73.00 %1.08 km/hW5.20 °C0.80 °C 
06:45:005.20 °C998.10 hPa72.00 %2.88 km/hWSW5.20 °C0.60 °C 
06:30:005.40 °C997.80 hPa72.00 %3.60 km/hW5.40 °C0.80 °C 
06:15:005.40 °C997.80 hPa73.00 %4.68 km/hW5.40 °C1.00 °C 
06:00:005.30 °C997.70 hPa73.00 %14.04 km/hSSW2.30 °C0.90 °C 
05:45:005.10 °C997.50 hPa75.00 %5.04 km/hW4.20 °C1.00 °C 
05:30:004.90 °C997.30 hPa76.00 %1.00 °C 
05:15:004.70 °C997.00 hPa76.00 %0.80 °C 
05:00:004.80 °C996.70 hPa76.00 %0.90 °C 
04:45:004.90 °C996.70 hPa77.00 %6.48 km/hNW3.50 °C1.20 °C 
04:30:004.90 °C996.60 hPa76.00 %1.00 °C 
04:15:005.30 °C996.50 hPa76.00 %5.76 km/hW4.10 °C1.40 °C 
04:00:005.80 °C996.20 hPa76.00 %4.68 km/hSSW5.80 °C1.90 °C 
03:45:005.90 °C996.10 hPa76.00 %6.84 km/hWSW4.50 °C2.00 °C 
03:30:006.10 °C995.90 hPa75.00 %2.16 km/hSW6.10 °C2.00 °C 
03:15:006.50 °C995.70 hPa74.00 %1.44 km/hNW6.50 °C2.20 °C 
03:00:006.90 °C995.90 hPa74.00 %2.16 km/hW6.90 °C2.60 °C 
02:45:007.00 °C995.50 hPa73.00 %13.32 km/hWNW4.50 °C2.50 °C 
02:30:007.10 °C995.50 hPa71.00 %2.16 km/hW7.10 °C2.20 °C 
02:15:007.60 °C995.10 hPa69.00 %2.30 °C 
02:00:008.10 °C994.90 hPa68.00 %8.28 km/hWNW6.70 °C2.60 °C 
01:45:008.10 °C994.50 hPa68.00 %3.96 km/hW8.10 °C2.60 °C 
01:30:008.30 °C994.30 hPa67.00 %9.36 km/hSW6.70 °C2.50 °C 
01:15:008.50 °C994.30 hPa67.00 %1.44 km/hW8.50 °C2.70 °C 
01:00:008.90 °C994.50 hPa67.00 %0.72 km/hW8.90 °C3.10 °C 
00:45:008.80 °C994.40 hPa68.00 %13.32 km/hSW6.70 °C3.20 °C 
00:30:008.40 °C993.80 hPa70.00 %5.40 km/hW7.80 °C3.30 °C 
00:15:007.80 °C993.30 hPa72.00 %8.64 km/hOSO6.30 °C3.10 °C 
00:00:007.80 °C993.10 hPa72.00 %3.10 °C 

Permanenter Link zu dieser Seite: Wetter im Erzgebirge am 05.03.2017
Performance-Info: Die Erstellung der Seite / Statistik(en) / Tabelle(n) erforderte 5 Datenbankserver-Abfrage(n) und dauerte 102 Millisekunden. (Dieser Messwert ist von der Gesamt-Auslastung des Servers abhängig.)
Erzgebirge - Wetter | Erzgebirge - Wetter (Mobilgeräte) | Komplette Klimadatenbank